PWF180 EHAM-EGLC
Flight info
| Callsign | PWF180 |
|---|---|
| Flight time | 0h 46m |
| Altitude | 20000 |
| Route | IDRID L980 XAMAN |
| Aircraft | CL60/M-SBDE1E2E3FGHIJ4J5J7M3RWXYZ/LB1V1D1 |
Departure
| Time | 2026-05-07 15:29 |
|---|---|
| Airport | Amsterdam Airport Schiphol (EHAM) |
Arrival
| Time | 2026-05-07 16:15 |
|---|---|
| Airport | London City Airport (EGLC) |
| Time | Latitude | Longitude | Altitude | Speed | Heading |
|---|---|---|---|---|---|
| 2026-05-07 15:03 | 52.31105 | 4.80455 | -1 ft | 0 kts | 132° |
| 2026-05-07 15:24 | 52.31097 | 4.80451 | -1 ft | 3 kts | 250° |
| 2026-05-07 15:24 | 52.31103 | 4.80390 | -1 ft | 7 kts | 340° |
| 2026-05-07 15:24 | 52.31143 | 4.80455 | -1 ft | 10 kts | 40° |
| 2026-05-07 15:24 | 52.31204 | 4.80539 | -1 ft | 13 kts | 41° |
| 2026-05-07 15:25 | 52.31259 | 4.80525 | -1 ft | 8 kts | 312° |
| 2026-05-07 15:25 | 52.31244 | 4.80426 | -1 ft | 12 kts | 227° |
| 2026-05-07 15:25 | 52.31153 | 4.80297 | -1 ft | 21 kts | 220° |
| 2026-05-07 15:25 | 52.31031 | 4.80119 | -1 ft | 24 kts | 220° |
| 2026-05-07 15:26 | 52.30893 | 4.79924 | -1 ft | 26 kts | 222° |
| 2026-05-07 15:26 | 52.30748 | 4.79714 | -1 ft | 28 kts | 220° |
| 2026-05-07 15:26 | 52.30593 | 4.79497 | -1 ft | 30 kts | 224° |
| 2026-05-07 15:26 | 52.30433 | 4.79263 | -1 ft | 31 kts | 219° |
| 2026-05-07 15:27 | 52.30265 | 4.79026 | -1 ft | 32 kts | 222° |
| 2026-05-07 15:27 | 52.30092 | 4.78778 | -1 ft | 33 kts | 221° |
| 2026-05-07 15:27 | 52.30037 | 4.78641 | -1 ft | 14 kts | 289° |
| 2026-05-07 15:27 | 52.30106 | 4.78502 | -1 ft | 15 kts | 313° |
| 2026-05-07 15:28 | 52.30139 | 4.78495 | -1 ft | 0 kts | 38° |
| 2026-05-07 15:28 | 52.30161 | 4.78522 | -1 ft | 26 kts | 37° |
| 2026-05-07 15:28 | 52.30487 | 4.78993 | -1 ft | 104 kts | 41° |
| 2026-05-07 15:28 | 52.31131 | 4.79910 | 73 ft | 149 kts | 40° |
| 2026-05-07 15:29 | 52.31932 | 4.81033 | 599 ft | 158 kts | 39° |
| 2026-05-07 15:29 | 52.32739 | 4.82151 | 1275 ft | 165 kts | 40° |
| 2026-05-07 15:29 | 52.33708 | 4.83393 | 1823 ft | 188 kts | 27° |
| 2026-05-07 15:29 | 52.34976 | 4.83809 | 2680 ft | 197 kts | 353° |
| 2026-05-07 15:30 | 52.36232 | 4.82779 | 3544 ft | 208 kts | 319° |
| 2026-05-07 15:30 | 52.37273 | 4.81130 | 4454 ft | 214 kts | 316° |
| 2026-05-07 15:30 | 52.38381 | 4.79345 | 4867 ft | 246 kts | 316° |
| 2026-05-07 15:30 | 52.39712 | 4.77207 | 5266 ft | 289 kts | 316° |
| 2026-05-07 15:31 | 52.41158 | 4.74885 | 6356 ft | 303 kts | 315° |
| 2026-05-07 15:31 | 52.42665 | 4.72467 | 7635 ft | 310 kts | 315° |
| 2026-05-07 15:31 | 52.44201 | 4.70000 | 8962 ft | 314 kts | 315° |
| 2026-05-07 15:31 | 52.45632 | 4.67331 | 10268 ft | 319 kts | 302° |
| 2026-05-07 15:32 | 52.46505 | 4.64019 | 11500 ft | 324 kts | 282° |
| 2026-05-07 15:32 | 52.46710 | 4.60396 | 12592 ft | 329 kts | 270° |
| 2026-05-07 15:32 | 52.46369 | 4.56747 | 13606 ft | 334 kts | 248° |
| 2026-05-07 15:32 | 52.45219 | 4.53442 | 14619 ft | 340 kts | 237° |
| 2026-05-07 15:33 | 52.43955 | 4.50200 | 15643 ft | 345 kts | 237° |
| 2026-05-07 15:33 | 52.42652 | 4.46882 | 16686 ft | 349 kts | 237° |
| 2026-05-07 15:33 | 52.41356 | 4.43585 | 17585 ft | 353 kts | 237° |
| 2026-05-07 15:33 | 52.40031 | 4.40200 | 18508 ft | 356 kts | 237° |
| 2026-05-07 15:34 | 52.38716 | 4.36803 | 19364 ft | 361 kts | 238° |
| 2026-05-07 15:34 | 52.37367 | 4.33243 | 19844 ft | 372 kts | 238° |
| 2026-05-07 15:34 | 52.36043 | 4.29587 | 20021 ft | 374 kts | 240° |
| 2026-05-07 15:34 | 52.34816 | 4.25920 | 20022 ft | 370 kts | 241° |
| 2026-05-07 15:35 | 52.33588 | 4.22208 | 20012 ft | 368 kts | 241° |
| 2026-05-07 15:35 | 52.32386 | 4.18576 | 20026 ft | 367 kts | 241° |
| 2026-05-07 15:35 | 52.31098 | 4.14938 | 20013 ft | 367 kts | 235° |
| 2026-05-07 15:35 | 52.29519 | 4.11560 | 20011 ft | 382 kts | 231° |
| 2026-05-07 15:36 | 52.27811 | 4.08020 | 20021 ft | 406 kts | 232° |
| 2026-05-07 15:36 | 52.26043 | 4.04348 | 20021 ft | 420 kts | 232° |
| 2026-05-07 15:36 | 52.24220 | 4.00563 | 20030 ft | 423 kts | 232° |
| 2026-05-07 15:36 | 52.22402 | 3.96792 | 20020 ft | 420 kts | 232° |
| 2026-05-07 15:37 | 52.20605 | 3.93065 | 20015 ft | 417 kts | 232° |
| 2026-05-07 15:37 | 52.18830 | 3.89385 | 20015 ft | 416 kts | 232° |
| 2026-05-07 15:37 | 52.17045 | 3.85686 | 20014 ft | 416 kts | 232° |
| 2026-05-07 15:37 | 52.15268 | 3.82009 | 20014 ft | 417 kts | 232° |
| 2026-05-07 15:38 | 52.13491 | 3.78335 | 20012 ft | 417 kts | 232° |
| 2026-05-07 15:38 | 52.11669 | 3.74572 | 20006 ft | 417 kts | 232° |
| 2026-05-07 15:38 | 52.09882 | 3.70885 | 20014 ft | 416 kts | 232° |
| 2026-05-07 15:38 | 52.08096 | 3.67205 | 20006 ft | 416 kts | 232° |
| 2026-05-07 15:39 | 52.06310 | 3.63527 | 20008 ft | 416 kts | 232° |
| 2026-05-07 15:39 | 52.04514 | 3.59835 | 20015 ft | 416 kts | 232° |
| 2026-05-07 15:39 | 52.02726 | 3.56162 | 20016 ft | 416 kts | 232° |
| 2026-05-07 15:39 | 52.00920 | 3.52459 | 20015 ft | 417 kts | 232° |
| 2026-05-07 15:40 | 51.99171 | 3.48770 | 20016 ft | 417 kts | 234° |
| 2026-05-07 15:40 | 51.97458 | 3.44982 | 20016 ft | 417 kts | 234° |
| 2026-05-07 15:40 | 51.95737 | 3.41176 | 20016 ft | 417 kts | 234° |
| 2026-05-07 15:40 | 51.94028 | 3.37401 | 20017 ft | 416 kts | 234° |
| 2026-05-07 15:41 | 51.92307 | 3.33603 | 20017 ft | 416 kts | 233° |
| 2026-05-07 15:41 | 51.90576 | 3.29790 | 20014 ft | 416 kts | 233° |
| 2026-05-07 15:41 | 51.88852 | 3.25997 | 20018 ft | 417 kts | 233° |
| 2026-05-07 15:41 | 51.87150 | 3.22256 | 20011 ft | 417 kts | 233° |
| 2026-05-07 15:42 | 51.85607 | 3.18259 | 20025 ft | 416 kts | 245° |
| 2026-05-07 15:42 | 51.84743 | 3.13819 | 20031 ft | 416 kts | 260° |
| 2026-05-07 15:42 | 51.84390 | 3.09184 | 20014 ft | 417 kts | 263° |
| 2026-05-07 15:42 | 51.84085 | 3.04560 | 20006 ft | 416 kts | 263° |
| 2026-05-07 15:43 | 51.83779 | 2.99940 | 20013 ft | 415 kts | 263° |
| 2026-05-07 15:43 | 51.83470 | 2.95306 | 20005 ft | 415 kts | 263° |
| 2026-05-07 15:43 | 51.83163 | 2.90693 | 20005 ft | 415 kts | 263° |
| 2026-05-07 15:43 | 51.82852 | 2.86059 | 20004 ft | 415 kts | 263° |
| 2026-05-07 15:44 | 51.82540 | 2.81423 | 20005 ft | 415 kts | 263° |
| 2026-05-07 15:44 | 51.82220 | 2.76698 | 20005 ft | 415 kts | 263° |
| 2026-05-07 15:44 | 51.81899 | 2.71978 | 20008 ft | 415 kts | 263° |
| 2026-05-07 15:44 | 51.81583 | 2.67348 | 20005 ft | 416 kts | 263° |
| 2026-05-07 15:45 | 51.81262 | 2.62682 | 20006 ft | 416 kts | 263° |
| 2026-05-07 15:45 | 51.80942 | 2.58070 | 20004 ft | 415 kts | 263° |
| 2026-05-07 15:45 | 51.80621 | 2.53457 | 20003 ft | 415 kts | 263° |
| 2026-05-07 15:45 | 51.80294 | 2.48790 | 20003 ft | 415 kts | 263° |
| 2026-05-07 15:46 | 51.79643 | 2.39564 | 20005 ft | 415 kts | 263° |
| 2026-05-07 15:46 | 51.79308 | 2.34863 | 19837 ft | 418 kts | 263° |
| 2026-05-07 15:46 | 51.78965 | 2.30072 | 19343 ft | 417 kts | 263° |
| 2026-05-07 15:47 | 51.78622 | 2.25294 | 18807 ft | 410 kts | 263° |
| 2026-05-07 15:47 | 51.78308 | 2.20744 | 18269 ft | 406 kts | 263° |
| 2026-05-07 15:47 | 51.78042 | 2.16189 | 17727 ft | 404 kts | 264° |
| 2026-05-07 15:47 | 51.77774 | 2.11598 | 17179 ft | 401 kts | 264° |
| 2026-05-07 15:48 | 51.77513 | 2.07158 | 16643 ft | 398 kts | 264° |
| 2026-05-07 15:48 | 51.77250 | 2.02706 | 16121 ft | 396 kts | 264° |
| 2026-05-07 15:48 | 51.76987 | 1.98285 | 15591 ft | 393 kts | 264° |
| 2026-05-07 15:48 | 51.76728 | 1.93964 | 15084 ft | 391 kts | 264° |
| 2026-05-07 15:49 | 51.76455 | 1.89450 | 14543 ft | 389 kts | 264° |
| 2026-05-07 15:49 | 51.76194 | 1.85146 | 14033 ft | 386 kts | 263° |
| 2026-05-07 15:49 | 51.75928 | 1.80804 | 13595 ft | 382 kts | 263° |
| 2026-05-07 15:49 | 51.75666 | 1.76549 | 13077 ft | 383 kts | 263° |
| 2026-05-07 15:50 | 51.75401 | 1.72268 | 12575 ft | 379 kts | 263° |
| 2026-05-07 15:50 | 51.75135 | 1.67996 | 12061 ft | 376 kts | 263° |
| 2026-05-07 15:50 | 51.74872 | 1.63796 | 11561 ft | 373 kts | 263° |
| 2026-05-07 15:50 | 51.74603 | 1.59517 | 11051 ft | 370 kts | 263° |
| 2026-05-07 15:51 | 51.74341 | 1.55384 | 10553 ft | 367 kts | 263° |
| 2026-05-07 15:51 | 51.74081 | 1.51299 | 10072 ft | 365 kts | 263° |
| 2026-05-07 15:51 | 51.73821 | 1.47237 | 9586 ft | 363 kts | 263° |
| 2026-05-07 15:51 | 51.73547 | 1.43199 | 9184 ft | 359 kts | 262° |
| 2026-05-07 15:52 | 51.73096 | 1.39205 | 9065 ft | 358 kts | 257° |
| 2026-05-07 15:52 | 51.72522 | 1.35235 | 9053 ft | 358 kts | 256° |
| 2026-05-07 15:52 | 51.71952 | 1.31315 | 8882 ft | 361 kts | 255° |
| 2026-05-07 15:52 | 51.71386 | 1.27415 | 8637 ft | 358 kts | 256° |
| 2026-05-07 15:53 | 51.70809 | 1.23445 | 8388 ft | 356 kts | 256° |
| 2026-05-07 15:53 | 51.70329 | 1.19491 | 8145 ft | 354 kts | 264° |
| 2026-05-07 15:53 | 51.70569 | 1.15595 | 8119 ft | 340 kts | 285° |
| 2026-05-07 15:53 | 51.71266 | 1.12121 | 8151 ft | 314 kts | 288° |
| 2026-05-07 15:54 | 51.71944 | 1.08908 | 8138 ft | 293 kts | 288° |
| 2026-05-07 15:54 | 51.72597 | 1.05811 | 7939 ft | 281 kts | 288° |
| 2026-05-07 15:54 | 51.73225 | 1.02833 | 7589 ft | 276 kts | 288° |
| 2026-05-07 15:54 | 51.73836 | 0.99937 | 7202 ft | 272 kts | 288° |
| 2026-05-07 15:55 | 51.74433 | 0.97103 | 6918 ft | 265 kts | 288° |
| 2026-05-07 15:55 | 51.75030 | 0.94264 | 6788 ft | 267 kts | 288° |
| 2026-05-07 15:55 | 51.75631 | 0.91405 | 6655 ft | 286 kts | 288° |
| 2026-05-07 15:55 | 51.76308 | 0.88159 | 6505 ft | 318 kts | 288° |
| 2026-05-07 15:56 | 51.77017 | 0.84761 | 6370 ft | 323 kts | 288° |
| 2026-05-07 15:56 | 51.77731 | 0.81333 | 6241 ft | 323 kts | 288° |
| 2026-05-07 15:56 | 51.78447 | 0.77893 | 6116 ft | 323 kts | 288° |
| 2026-05-07 15:56 | 51.79156 | 0.74483 | 5991 ft | 323 kts | 288° |
| 2026-05-07 15:57 | 51.79868 | 0.71060 | 5948 ft | 320 kts | 288° |
| 2026-05-07 15:57 | 51.80582 | 0.67613 | 5971 ft | 322 kts | 288° |
| 2026-05-07 15:57 | 51.81348 | 0.64254 | 5983 ft | 319 kts | 294° |
| 2026-05-07 15:57 | 51.82294 | 0.61115 | 5984 ft | 306 kts | 296° |
| 2026-05-07 15:58 | 51.83228 | 0.58077 | 5986 ft | 302 kts | 296° |
| 2026-05-07 15:58 | 51.84157 | 0.55049 | 5978 ft | 301 kts | 295° |
| 2026-05-07 15:58 | 51.85092 | 0.51996 | 5977 ft | 301 kts | 295° |
| 2026-05-07 15:58 | 51.86019 | 0.48963 | 5981 ft | 301 kts | 295° |
| 2026-05-07 15:59 | 51.86943 | 0.45935 | 5981 ft | 301 kts | 295° |
| 2026-05-07 15:59 | 51.87859 | 0.42931 | 5976 ft | 302 kts | 295° |
| 2026-05-07 15:59 | 51.88788 | 0.39876 | 5979 ft | 302 kts | 295° |
| 2026-05-07 15:59 | 51.89716 | 0.36820 | 5978 ft | 302 kts | 295° |
| 2026-05-07 16:00 | 51.90631 | 0.33803 | 5984 ft | 302 kts | 295° |
| 2026-05-07 16:00 | 51.91558 | 0.30744 | 5979 ft | 302 kts | 294° |
| 2026-05-07 16:00 | 51.92479 | 0.27697 | 5975 ft | 303 kts | 295° |
| 2026-05-07 16:00 | 51.93401 | 0.24647 | 5977 ft | 303 kts | 295° |
| 2026-05-07 16:01 | 51.94327 | 0.21576 | 5977 ft | 303 kts | 294° |
| 2026-05-07 16:01 | 51.95255 | 0.18496 | 5978 ft | 303 kts | 294° |
| 2026-05-07 16:01 | 51.96175 | 0.15434 | 5978 ft | 303 kts | 294° |
| 2026-05-07 16:01 | 51.97087 | 0.12399 | 5972 ft | 303 kts | 294° |
| 2026-05-07 16:02 | 51.98009 | 0.09327 | 5974 ft | 302 kts | 294° |
| 2026-05-07 16:02 | 51.98837 | 0.06205 | 5979 ft | 302 kts | 284° |
| 2026-05-07 16:02 | 51.99072 | 0.02843 | 5958 ft | 299 kts | 270° |
| 2026-05-07 16:02 | 51.99113 | -0.00505 | 5963 ft | 300 kts | 270° |
| 2026-05-07 16:03 | 51.99153 | -0.03873 | 5964 ft | 300 kts | 270° |
| 2026-05-07 16:03 | 51.99193 | -0.07256 | 5960 ft | 299 kts | 270° |
| 2026-05-07 16:03 | 51.99232 | -0.10603 | 5959 ft | 299 kts | 270° |
| 2026-05-07 16:03 | 51.99272 | -0.13974 | 5942 ft | 298 kts | 270° |
| 2026-05-07 16:04 | 51.99311 | -0.17381 | 5964 ft | 299 kts | 270° |
| 2026-05-07 16:04 | 51.99350 | -0.20722 | 5957 ft | 299 kts | 270° |
| 2026-05-07 16:04 | 51.99388 | -0.24089 | 5967 ft | 300 kts | 270° |
| 2026-05-07 16:04 | 51.99273 | -0.27470 | 5966 ft | 299 kts | 255° |
| 2026-05-07 16:05 | 51.98420 | -0.30505 | 5951 ft | 297 kts | 235° |
| 2026-05-07 16:05 | 51.96983 | -0.32895 | 5950 ft | 298 kts | 216° |
| 2026-05-07 16:05 | 51.95133 | -0.34384 | 5950 ft | 299 kts | 197° |
| 2026-05-07 16:05 | 51.93053 | -0.34795 | 5951 ft | 300 kts | 177° |
| 2026-05-07 16:06 | 51.91025 | -0.34104 | 5949 ft | 301 kts | 160° |
| 2026-05-07 16:06 | 51.89075 | -0.32847 | 5957 ft | 302 kts | 158° |
| 2026-05-07 16:06 | 51.87145 | -0.31583 | 5959 ft | 302 kts | 158° |
| 2026-05-07 16:06 | 51.85188 | -0.30310 | 5959 ft | 302 kts | 159° |
| 2026-05-07 16:07 | 51.83261 | -0.29060 | 5963 ft | 302 kts | 159° |
| 2026-05-07 16:07 | 51.81319 | -0.27803 | 5962 ft | 302 kts | 159° |
| 2026-05-07 16:07 | 51.79372 | -0.26546 | 5963 ft | 301 kts | 159° |
| 2026-05-07 16:07 | 51.77428 | -0.25294 | 5965 ft | 301 kts | 159° |
| 2026-05-07 16:08 | 51.75474 | -0.24038 | 5963 ft | 301 kts | 159° |
| 2026-05-07 16:08 | 51.73512 | -0.22779 | 5964 ft | 300 kts | 159° |
| 2026-05-07 16:08 | 51.71583 | -0.21544 | 5970 ft | 300 kts | 159° |
| 2026-05-07 16:08 | 51.69668 | -0.20319 | 5730 ft | 303 kts | 158° |
| 2026-05-07 16:09 | 51.67748 | -0.19093 | 5359 ft | 295 kts | 158° |
| 2026-05-07 16:09 | 51.65877 | -0.17901 | 4997 ft | 286 kts | 159° |
| 2026-05-07 16:09 | 51.63957 | -0.17252 | 4633 ft | 278 kts | 177° |
| 2026-05-07 16:09 | 51.62070 | -0.17220 | 4324 ft | 269 kts | 180° |
| 2026-05-07 16:10 | 51.60220 | -0.17248 | 4020 ft | 262 kts | 180° |
| 2026-05-07 16:10 | 51.58431 | -0.17289 | 3716 ft | 254 kts | 180° |
| 2026-05-07 16:10 | 51.56678 | -0.17344 | 3413 ft | 242 kts | 180° |
| 2026-05-07 16:10 | 51.55051 | -0.17405 | 3165 ft | 230 kts | 180° |
| 2026-05-07 16:11 | 51.53499 | -0.17466 | 2913 ft | 219 kts | 180° |
| 2026-05-07 16:11 | 51.51999 | -0.17528 | 2749 ft | 205 kts | 180° |
| 2026-05-07 16:11 | 51.50695 | -0.17387 | 2837 ft | 175 kts | 157° |
| 2026-05-07 16:11 | 51.49924 | -0.16050 | 2723 ft | 163 kts | 103° |
| 2026-05-07 16:12 | 51.50031 | -0.14328 | 2573 ft | 160 kts | 71° |
| 2026-05-07 16:12 | 51.50502 | -0.12734 | 2434 ft | 160 kts | 64° |
| 2026-05-07 16:12 | 51.50951 | -0.11087 | 2288 ft | 160 kts | 74° |
| 2026-05-07 16:12 | 51.51170 | -0.09392 | 2215 ft | 151 kts | 87° |
| 2026-05-07 16:13 | 51.51167 | -0.07826 | 2272 ft | 135 kts | 96° |
| 2026-05-07 16:13 | 51.51058 | -0.06346 | 2310 ft | 133 kts | 99° |
| 2026-05-07 16:13 | 51.50920 | -0.04861 | 2164 ft | 136 kts | 100° |
| 2026-05-07 16:13 | 51.50798 | -0.03360 | 1796 ft | 135 kts | 98° |
| 2026-05-07 16:14 | 51.50717 | -0.01888 | 1422 ft | 131 kts | 96° |
| 2026-05-07 16:14 | 51.50674 | -0.00458 | 1104 ft | 129 kts | 92° |
| 2026-05-07 16:14 | 51.50653 | 0.00965 | 814 ft | 127 kts | 93° |
| 2026-05-07 16:14 | 51.50629 | 0.02388 | 509 ft | 128 kts | 94° |
| 2026-05-07 16:15 | 51.50585 | 0.03812 | 196 ft | 124 kts | 95° |
| 2026-05-07 16:15 | 51.50536 | 0.05097 | 25 ft | 104 kts | 94° |
| 2026-05-07 16:15 | 51.50509 | 0.05946 | 26 ft | 17 kts | 93° |
| 2026-05-07 16:15 | 51.50491 | 0.06050 | 28 ft | 8 kts | 150° |
| 2026-05-07 16:16 | 51.50438 | 0.05990 | 26 ft | 8 kts | 234° |
| 2026-05-07 16:16 | 51.50426 | 0.05861 | 24 ft | 14 kts | 272° |
| 2026-05-07 16:16 | 51.50431 | 0.05673 | 24 ft | 18 kts | 272° |
| 2026-05-07 16:16 | 51.50438 | 0.05457 | 27 ft | 19 kts | 273° |
| 2026-05-07 16:17 | 51.50447 | 0.05228 | 28 ft | 22 kts | 273° |
| 2026-05-07 16:17 | 51.50461 | 0.04993 | 24 ft | 21 kts | 276° |
| 2026-05-07 16:17 | 51.50468 | 0.04731 | 18 ft | 26 kts | 271° |
| 2026-05-07 16:17 | 51.50483 | 0.04463 | 18 ft | 19 kts | 281° |
| 2026-05-07 16:18 | 51.50500 | 0.04294 | 18 ft | 2 kts | 273° |
| 2026-05-07 16:18 | 51.50494 | 0.04255 | 18 ft | 4 kts | 197° |
| 2026-05-07 16:18 | 51.50479 | 0.04255 | 18 ft | 3 kts | 179° |
| 2026-05-07 16:18 | 51.50475 | 0.04255 | 18 ft | 0 kts | 181° |